createdAt,value
2018-05-19T00:00:32.555Z,82.56
2018-05-19T00:01:32.545Z,86.65
2018-05-19T00:02:32.549Z,81.51
2018-05-19T00:03:32.535Z,81.60
2018-05-19T00:04:32.531Z,82.65
2018-05-19T00:05:32.516Z,84.84
2018-05-19T00:06:32.512Z,84.75
2018-05-19T00:07:32.507Z,83.13
2018-05-19T00:08:36.613Z,81.89
2018-05-19T00:09:32.491Z,81.51
2018-05-19T00:10:32.480Z,83.51
2018-05-19T00:11:32.475Z,80.84
2018-05-19T00:12:32.461Z,82.75
2018-05-19T00:13:32.456Z,81.03
2018-05-19T00:14:32.451Z,87.41
2018-05-19T00:15:32.437Z,81.60
2018-05-19T00:16:32.433Z,83.32
2018-05-19T00:17:32.423Z,81.89
2018-05-19T00:18:32.421Z,83.80
2018-05-19T00:19:32.423Z,82.27
2018-05-19T00:20:32.405Z,83.61
2018-05-19T00:21:32.391Z,81.70
2018-05-19T00:22:32.387Z,82.18
2018-05-19T00:23:32.377Z,82.46
2018-05-19T00:24:32.377Z,83.51
2018-05-19T00:25:32.366Z,83.13
2018-05-19T00:26:32.356Z,83.13
2018-05-19T00:27:32.350Z,82.18
2018-05-19T00:28:32.345Z,82.08
2018-05-19T00:29:32.332Z,84.94
2018-05-19T00:30:32.324Z,82.65
2018-05-19T00:31:32.320Z,84.75
2018-05-19T00:32:32.312Z,82.27
2018-05-19T00:33:32.304Z,81.60
2018-05-19T00:34:32.300Z,82.08
2018-05-19T00:35:32.283Z,82.08
2018-05-19T00:36:32.281Z,80.99
2018-05-19T00:37:32.268Z,81.51
2018-05-19T00:38:32.264Z,81.60
2018-05-19T00:39:32.258Z,83.61
2018-05-19T00:40:32.243Z,81.56
2018-05-19T00:41:32.238Z,82.51
2018-05-19T00:42:32.232Z,82.27
2018-05-19T00:43:32.221Z,83.37
2018-05-19T00:44:32.217Z,81.85
2018-05-19T00:45:32.205Z,81.95
2018-05-19T00:46:32.200Z,83.85
2018-05-19T00:47:32.196Z,82.04
2018-05-19T00:48:32.189Z,81.09
2018-05-19T00:49:32.174Z,82.80
2018-05-19T00:50:32.173Z,82.32
2018-05-19T00:51:32.186Z,83.18
2018-05-19T00:52:32.197Z,82.32
2018-05-19T00:53:32.147Z,82.42
2018-05-19T00:54:32.143Z,81.56
2018-05-19T00:55:32.141Z,81.66
2018-05-19T00:56:32.123Z,82.51
2018-05-19T00:57:32.133Z,83.18
2018-05-19T00:58:32.108Z,82.32
2018-05-19T00:59:32.101Z,81.56
2018-05-19T01:00:32.093Z,80.71
2018-05-19T01:01:32.083Z,91.37
2018-05-19T01:02:32.077Z,81.56
2018-05-19T01:03:32.066Z,88.04
2018-05-19T01:04:32.062Z,89.56
2018-05-19T01:05:32.051Z,85.18
2018-05-19T01:06:32.042Z,82.14
2018-05-19T01:07:32.038Z,86.13
2018-05-19T01:08:32.025Z,82.04
2018-05-19T01:09:32.022Z,80.42
2018-05-19T01:10:32.008Z,81.47
2018-05-19T01:11:32.003Z,82.42
2018-05-19T01:12:31.998Z,83.94
2018-05-19T01:13:31.987Z,83.28
2018-05-19T01:14:31.979Z,83.94
2018-05-19T01:15:31.972Z,81.66
2018-05-19T01:16:31.965Z,82.90
2018-05-19T01:17:31.953Z,81.28
2018-05-19T01:18:31.944Z,84.61
2018-05-19T01:19:31.941Z,86.22
2018-05-19T01:20:31.931Z,83.18
2018-05-19T01:21:31.927Z,81.85
2018-05-19T01:22:31.917Z,82.61
2018-05-19T01:23:31.915Z,82.80
2018-05-19T01:24:31.900Z,84.13
2018-05-19T01:25:31.892Z,82.99
2018-05-19T01:26:31.883Z,82.42
2018-05-19T01:27:31.881Z,82.70
2018-05-19T01:28:31.866Z,82.70
2018-05-19T01:29:31.861Z,80.80
2018-05-19T01:30:31.854Z,87.85
2018-05-19T01:31:31.844Z,83.75
2018-05-19T01:32:31.836Z,81.95
2018-05-19T01:33:31.825Z,81.66
2018-05-19T01:34:31.826Z,79.75
2018-05-19T01:35:31.812Z,81.85
2018-05-19T01:36:31.805Z,80.52
2018-05-19T01:37:31.794Z,82.61
2018-05-19T01:38:31.787Z,80.04
2018-05-19T01:39:31.781Z,81.18
2018-05-19T01:40:31.779Z,80.52
2018-05-19T01:41:31.783Z,83.18
2018-05-19T01:42:31.767Z,82.80
2018-05-19T01:43:31.759Z,84.42
2018-05-19T01:44:31.743Z,85.08
2018-05-19T01:45:31.732Z,82.80
2018-05-19T01:46:31.723Z,81.47
2018-05-19T01:47:31.716Z,81.85
2018-05-19T01:48:31.707Z,81.95
2018-05-19T01:49:31.699Z,83.47
2018-05-19T01:50:31.695Z,80.71
2018-05-19T01:51:31.687Z,81.28
2018-05-19T01:52:31.678Z,82.42
2018-05-19T01:53:31.667Z,81.28
2018-05-19T01:54:31.660Z,84.52
2018-05-19T01:55:31.655Z,83.18
2018-05-19T01:56:31.649Z,82.28
2018-05-19T01:57:31.642Z,81.76
2018-05-19T01:58:31.635Z,82.09
2018-05-19T01:59:31.619Z,80.80
2018-05-19T02:00:31.611Z,81.62
2018-05-19T02:01:31.604Z,83.14
2018-05-19T02:02:31.598Z,81.05
2018-05-19T02:03:31.594Z,80.61
2018-05-19T02:04:31.581Z,80.95
2018-05-19T02:05:31.572Z,82.48
2018-05-19T02:06:31.561Z,81.14
2018-05-19T02:07:31.559Z,79.72
2018-05-19T02:08:31.553Z,78.67
2018-05-19T02:09:31.540Z,80.47
2018-05-19T02:10:31.528Z,80.95
2018-05-19T02:11:31.522Z,79.33
2018-05-19T02:12:31.516Z,80.76
2018-05-19T02:13:31.512Z,80.57
2018-05-19T02:14:31.498Z,83.04
2018-05-19T02:15:31.502Z,82.76
2018-05-19T02:16:31.482Z,80.19
2018-05-19T02:17:31.483Z,82.38
2018-05-19T02:18:31.465Z,80.19
2018-05-19T02:19:31.461Z,84.00
2018-05-19T02:20:31.456Z,80.95
2018-05-19T02:21:31.442Z,82.67
2018-05-19T02:22:31.436Z,80.29
2018-05-19T02:23:31.429Z,80.10
2018-05-19T02:24:31.433Z,81.81
2018-05-19T02:25:31.415Z,81.33
2018-05-19T02:26:31.400Z,84.38
2018-05-19T02:27:31.392Z,82.00
2018-05-19T02:28:31.384Z,81.62
2018-05-19T02:29:31.375Z,80.19
2018-05-19T02:30:31.372Z,80.86
2018-05-19T02:31:31.365Z,81.62
2018-05-19T02:32:31.362Z,80.95
2018-05-19T02:33:31.345Z,80.76
2018-05-19T02:34:31.338Z,80.86
2018-05-19T02:35:31.332Z,80.47
2018-05-19T02:36:31.322Z,82.76
2018-05-19T02:37:31.315Z,81.43
2018-05-19T02:38:31.310Z,79.33
2018-05-19T02:39:31.296Z,80.57
2018-05-19T02:40:31.286Z,80.57
2018-05-19T02:41:31.282Z,78.57
2018-05-19T02:42:31.272Z,80.00
2018-05-19T02:43:31.261Z,79.81
2018-05-19T02:44:31.259Z,79.43
2018-05-19T02:45:31.246Z,79.33
2018-05-19T02:46:31.244Z,81.52
2018-05-19T02:47:31.232Z,80.19
2018-05-19T02:48:31.220Z,79.91
2018-05-19T02:49:31.217Z,78.77
2018-05-19T02:50:31.210Z,78.10
2018-05-19T02:51:31.200Z,80.29
2018-05-19T02:52:31.194Z,79.24
2018-05-19T02:53:31.195Z,79.33
2018-05-19T02:54:31.177Z,83.14
2018-05-19T02:55:31.167Z,81.52
2018-05-19T02:56:31.163Z,80.47
2018-05-19T02:57:31.151Z,80.66
2018-05-19T02:58:31.145Z,82.48
2018-05-19T02:59:31.133Z,80.76
2018-05-19T03:00:31.125Z,81.05
2018-05-19T03:01:31.119Z,83.52
2018-05-19T03:02:31.107Z,82.67
2018-05-19T03:03:31.099Z,79.91
2018-05-19T03:04:31.094Z,82.38
2018-05-19T03:05:31.082Z,80.19
2018-05-19T03:06:31.079Z,81.43
2018-05-19T03:07:31.064Z,79.72
2018-05-19T03:08:31.068Z,81.43
2018-05-19T03:09:31.048Z,79.72
2018-05-19T03:10:31.041Z,81.24
2018-05-19T03:11:31.031Z,80.76
2018-05-19T03:12:31.030Z,82.19
2018-05-19T03:13:31.021Z,80.95
2018-05-19T03:14:31.024Z,81.52
2018-05-19T03:15:31.006Z,80.29
2018-05-19T03:16:30.992Z,79.81
2018-05-19T03:17:30.983Z,79.33
2018-05-19T03:18:30.976Z,80.57
2018-05-19T03:19:30.967Z,81.14
2018-05-19T03:20:30.962Z,79.81
2018-05-19T03:21:30.950Z,82.19
2018-05-19T03:22:30.943Z,81.24
2018-05-19T03:23:30.934Z,81.62
2018-05-19T03:24:30.927Z,83.33
2018-05-19T03:25:30.919Z,83.04
2018-05-19T03:26:30.929Z,81.62
2018-05-19T03:27:30.901Z,83.42
2018-05-19T03:28:30.922Z,83.23
2018-05-19T03:29:30.882Z,82.57
2018-05-19T03:30:30.879Z,82.19
2018-05-19T03:31:30.872Z,82.48
2018-05-19T03:32:30.863Z,81.90
2018-05-19T03:33:30.855Z,81.24
2018-05-19T03:34:30.854Z,82.38
2018-05-19T03:35:30.844Z,80.76
2018-05-19T03:36:30.828Z,82.48
2018-05-19T03:37:30.818Z,79.43
2018-05-19T03:38:30.814Z,82.09
2018-05-19T03:39:30.808Z,81.43
2018-05-19T03:40:30.797Z,81.52
2018-05-19T03:41:30.786Z,80.86
2018-05-19T03:42:30.782Z,80.10
2018-05-19T03:43:30.771Z,82.67
2018-05-19T03:44:30.767Z,80.95
2018-05-19T03:45:30.753Z,80.19
2018-05-19T03:46:30.750Z,83.14
2018-05-19T03:47:30.753Z,82.28
2018-05-19T03:48:30.732Z,81.24
2018-05-19T03:49:30.723Z,82.48
2018-05-19T03:50:30.713Z,81.14
2018-05-19T03:51:30.706Z,80.19
2018-05-19T03:52:30.701Z,79.62
2018-05-19T03:53:30.690Z,83.14
2018-05-19T03:54:30.681Z,81.14
2018-05-19T03:55:30.672Z,82.19
2018-05-19T03:56:30.667Z,80.66
2018-05-19T03:57:30.654Z,82.00
2018-05-19T03:58:30.648Z,81.62
2018-05-19T03:59:30.639Z,79.62
2018-05-19T04:00:30.639Z,79.52
2018-05-19T04:01:30.654Z,81.14
2018-05-19T04:02:30.618Z,80.76
2018-05-19T04:03:30.616Z,80.47
2018-05-19T04:04:30.599Z,80.57
2018-05-19T04:05:30.590Z,84.09
2018-05-19T04:06:30.582Z,78.96
2018-05-19T04:07:30.575Z,80.86
2018-05-19T04:08:30.587Z,78.86
2018-05-19T04:09:30.567Z,82.86
2018-05-19T04:10:30.574Z,81.05
2018-05-19T04:11:30.542Z,80.38
2018-05-19T04:12:30.534Z,79.81
2018-05-19T04:13:30.529Z,80.10
2018-05-19T04:14:30.520Z,80.19
2018-05-19T04:15:30.509Z,81.14
2018-05-19T04:16:30.502Z,84.00
2018-05-19T04:17:30.495Z,79.33
2018-05-19T04:18:30.484Z,82.57
2018-05-19T04:19:30.479Z,82.19
2018-05-19T04:20:30.472Z,81.62
2018-05-19T04:21:30.460Z,82.38
2018-05-19T04:22:30.458Z,79.33
2018-05-19T04:23:30.446Z,79.81
2018-05-19T04:24:30.442Z,80.66
2018-05-19T04:25:30.428Z,82.76
2018-05-19T04:26:30.418Z,82.38
2018-05-19T04:27:30.411Z,82.38
2018-05-19T04:28:30.404Z,82.23
2018-05-19T04:29:30.400Z,82.51
2018-05-19T04:30:30.390Z,82.14
2018-05-19T04:31:30.383Z,82.32
2018-05-19T04:32:30.373Z,82.70
2018-05-19T04:33:30.361Z,84.04
2018-05-19T04:34:30.356Z,80.61
2018-05-19T04:35:30.347Z,81.28
2018-05-19T04:36:30.366Z,80.99
2018-05-19T04:37:30.337Z,81.37
2018-05-19T04:38:30.328Z,82.70
2018-05-19T04:39:30.323Z,79.57
2018-05-19T04:40:30.307Z,80.90
2018-05-19T04:41:30.302Z,80.80
2018-05-19T04:42:30.295Z,83.56
2018-05-19T04:43:30.292Z,79.38
2018-05-19T04:44:30.281Z,80.04
2018-05-19T04:45:30.273Z,80.04
2018-05-19T04:46:30.266Z,80.99
2018-05-19T04:47:30.262Z,80.42
2018-05-19T04:48:30.248Z,79.66
2018-05-19T04:49:30.251Z,84.61
2018-05-19T04:50:30.234Z,79.66
2018-05-19T04:51:30.234Z,80.99
2018-05-19T04:52:30.218Z,79.85
2018-05-19T04:53:30.210Z,79.85
2018-05-19T04:54:30.201Z,80.04
2018-05-19T04:55:30.195Z,81.66
2018-05-19T04:56:30.185Z,80.61
2018-05-19T04:57:30.179Z,80.75
2018-05-19T04:58:30.171Z,80.08
2018-05-19T04:59:30.162Z,80.65
2018-05-19T05:00:30.236Z,81.09
2018-05-19T05:01:30.146Z,80.36
2018-05-19T05:02:30.140Z,80.46
2018-05-19T05:03:30.132Z,81.13
2018-05-19T05:04:30.739Z,82.56
2018-05-19T05:05:30.129Z,82.65
2018-05-19T05:06:30.111Z,83.61
2018-05-19T05:07:30.103Z,81.41
2018-05-19T05:08:30.095Z,81.70
2018-05-19T05:09:30.089Z,83.13
2018-05-19T05:10:30.081Z,81.79
2018-05-19T05:11:30.076Z,82.08
2018-05-19T05:12:30.069Z,82.56
2018-05-19T05:13:30.063Z,82.93
2018-05-19T05:14:30.050Z,82.65
2018-05-19T05:15:30.043Z,82.84
2018-05-19T05:16:30.036Z,82.65
2018-05-19T05:17:30.032Z,83.41
2018-05-19T05:18:30.059Z,83.80
2018-05-19T05:19:30.029Z,82.65
2018-05-19T05:20:30.009Z,83.74
2018-05-19T05:21:30.021Z,84.50
2018-05-19T05:22:29.998Z,85.46
2018-05-19T05:23:30.005Z,83.17
2018-05-19T05:24:29.978Z,83.74
2018-05-19T05:25:29.973Z,84.31
2018-05-19T05:26:29.969Z,83.74
2018-05-19T05:27:29.959Z,84.41
2018-05-19T05:28:29.950Z,83.07
2018-05-19T05:29:29.943Z,83.93
2018-05-19T05:30:29.935Z,83.74
2018-05-19T05:31:29.980Z,85.36
2018-05-19T05:32:29.922Z,84.31
2018-05-19T05:33:29.916Z,83.88
2018-05-19T05:34:29.913Z,84.45
2018-05-19T05:35:29.899Z,84.16
2018-05-19T05:36:29.895Z,84.36
2018-05-19T05:37:29.891Z,86.26
2018-05-19T05:38:29.882Z,84.36
2018-05-19T05:39:29.878Z,88.45
2018-05-19T05:40:29.874Z,85.50
2018-05-19T05:41:29.859Z,85.41
2018-05-19T05:42:29.851Z,85.41
2018-05-19T05:43:29.848Z,85.50
2018-05-19T05:44:29.841Z,85.50
2018-05-19T05:45:29.841Z,86.07
2018-05-19T05:46:29.834Z,85.64
2018-05-19T05:47:29.821Z,86.21
2018-05-19T05:48:29.823Z,85.69
2018-05-19T05:49:29.810Z,85.54
2018-05-19T05:50:29.803Z,87.35
2018-05-19T05:51:29.797Z,85.73
2018-05-19T05:52:29.794Z,86.40
2018-05-19T05:53:29.786Z,85.64
2018-05-19T05:54:29.786Z,85.93
2018-05-19T05:55:29.768Z,85.93
2018-05-19T05:56:29.768Z,85.73
2018-05-19T05:57:29.757Z,86.78
2018-05-19T05:58:29.794Z,85.73
2018-05-19T05:59:29.831Z,86.69
2018-05-19T06:00:29.748Z,86.02
2018-05-19T06:01:29.735Z,85.83
2018-05-19T06:02:29.726Z,86.49
2018-05-19T06:03:29.723Z,85.83
2018-05-19T06:04:29.715Z,86.88
2018-05-19T06:05:29.723Z,85.93
2018-05-19T06:06:29.745Z,86.02
2018-05-19T06:07:29.697Z,86.49
2018-05-19T06:08:29.693Z,85.64
2018-05-19T06:09:29.683Z,85.54
2018-05-19T06:10:29.676Z,85.73
2018-05-19T06:11:29.677Z,85.64
2018-05-19T06:12:29.662Z,85.49
2018-05-19T06:13:29.661Z,86.16
2018-05-19T06:14:29.653Z,86.06
2018-05-19T06:15:29.655Z,85.77
2018-05-19T06:16:29.641Z,85.87
2018-05-19T06:17:29.636Z,86.35
2018-05-19T06:18:29.712Z,85.77
2018-05-19T06:19:29.623Z,85.58
2018-05-19T06:20:29.619Z,85.11
2018-05-19T06:21:29.613Z,85.01
2018-05-19T06:22:29.610Z,85.25
2018-05-19T06:23:29.605Z,85.53
2018-05-19T06:24:29.598Z,83.81
2018-05-19T06:25:29.620Z,84.67
2018-05-19T06:26:29.590Z,84.67
2018-05-19T06:27:29.579Z,84.58
2018-05-19T06:28:29.577Z,84.00
2018-05-19T06:29:30.267Z,84.67
2018-05-19T06:30:29.567Z,83.91
2018-05-19T06:31:29.567Z,84.10
2018-05-19T06:32:29.555Z,83.53
2018-05-19T06:33:29.548Z,83.43
2018-05-19T06:34:29.547Z,83.72
2018-05-19T06:35:29.546Z,84.10
2018-05-19T06:36:29.534Z,82.76
2018-05-19T06:37:29.531Z,83.14
2018-05-19T06:38:29.524Z,83.14
2018-05-19T06:39:29.523Z,83.34
2018-05-19T06:40:29.520Z,83.34
2018-05-19T06:41:29.511Z,83.43
2018-05-19T06:42:29.506Z,83.34
2018-05-19T06:43:29.503Z,83.62
2018-05-19T06:44:29.499Z,83.53
2018-05-19T06:45:29.491Z,82.86
2018-05-19T06:46:29.483Z,83.72
2018-05-19T06:47:29.483Z,84.00
2018-05-19T06:48:29.476Z,83.53
2018-05-19T06:49:29.473Z,83.34
2018-05-19T06:50:29.489Z,83.53
2018-05-19T06:51:29.469Z,83.34
2018-05-19T06:52:29.462Z,83.47
2018-05-19T06:53:29.453Z,83.18
2018-05-19T06:54:29.461Z,83.76
2018-05-19T06:55:29.445Z,83.28
2018-05-19T06:56:29.440Z,83.28
2018-05-19T06:57:29.436Z,82.61
2018-05-19T06:58:29.434Z,82.42
2018-05-19T06:59:29.425Z,82.28
2018-05-19T07:00:29.421Z,81.60
2018-05-19T07:01:29.422Z,80.93
2018-05-19T07:02:29.417Z,81.70
2018-05-19T07:03:29.408Z,81.70
2018-05-19T07:04:29.426Z,81.41
2018-05-19T07:05:29.400Z,81.60
2018-05-19T07:06:29.397Z,80.93
2018-05-19T07:07:29.388Z,80.65
2018-05-19T07:08:29.385Z,80.55
2018-05-19T07:09:29.379Z,79.60
2018-05-19T07:10:29.384Z,79.83
2018-05-19T07:11:29.379Z,79.54
2018-05-19T07:12:29.373Z,79.06
2018-05-19T07:13:29.377Z,77.34
2018-05-19T07:14:29.361Z,76.96
2018-05-19T07:15:29.359Z,77.82
2018-05-19T07:16:29.370Z,76.29
2018-05-19T07:17:29.349Z,76.96
2018-05-19T07:18:29.347Z,77.15
2018-05-19T07:19:29.346Z,76.29
2018-05-19T07:20:31.363Z,76.29
2018-05-19T07:21:29.343Z,76.92
2018-05-19T07:22:29.336Z,77.21
2018-05-19T07:23:29.330Z,77.06
2018-05-19T07:24:29.325Z,77.34
2018-05-19T07:25:29.324Z,76.86
2018-05-19T07:26:29.316Z,77.82
2018-05-19T07:27:29.331Z,77.92
2018-05-19T07:28:29.316Z,78.01
2018-05-19T07:29:30.310Z,77.34
2018-05-19T07:30:29.327Z,76.39
2018-05-19T07:31:29.303Z,76.39
2018-05-19T07:32:30.305Z,76.48
2018-05-19T07:33:29.299Z,76.52
2018-05-19T07:34:29.800Z,76.04
2018-05-19T07:35:29.287Z,75.18
2018-05-19T07:36:29.299Z,74.41
2018-05-19T07:37:29.280Z,75.09
2018-05-19T07:38:29.285Z,74.41
2018-05-19T07:39:29.284Z,73.36
2018-05-19T07:40:29.308Z,73.65
2018-05-19T07:41:29.269Z,73.84
2018-05-19T07:42:29.274Z,73.08
2018-05-19T07:43:29.274Z,72.41
2018-05-19T07:44:29.257Z,72.31
2018-05-19T07:45:29.283Z,72.69
2018-05-19T07:46:29.264Z,72.12
2018-05-19T07:47:29.262Z,72.02
2018-05-19T07:48:29.256Z,72.88
2018-05-19T07:49:29.251Z,73.27
2018-05-19T07:50:29.258Z,73.27
2018-05-19T07:51:29.234Z,73.36
2018-05-19T07:52:29.233Z,72.98
2018-05-19T07:53:29.230Z,72.98
2018-05-19T07:54:29.244Z,72.54
2018-05-19T07:55:29.224Z,72.06
2018-05-19T07:56:29.219Z,71.48
2018-05-19T07:57:29.218Z,70.72
2018-05-19T07:58:29.213Z,70.91
2018-05-19T07:59:30.799Z,70.91
2018-05-19T08:00:29.208Z,69.67
2018-05-19T08:01:29.224Z,69.86
2018-05-19T08:02:29.203Z,69.86
2018-05-19T08:03:29.204Z,69.80
2018-05-19T08:04:29.199Z,69.70
2018-05-19T08:05:29.194Z,68.46
2018-05-19T08:06:29.192Z,67.50
2018-05-19T08:07:29.189Z,68.84
2018-05-19T08:08:29.184Z,67.82
2018-05-19T08:09:29.190Z,69.64
2018-05-19T08:10:29.196Z,67.95
2018-05-19T08:11:29.181Z,66.03
2018-05-19T08:12:29.228Z,64.25
2018-05-19T08:13:29.184Z,64.63
2018-05-19T08:14:29.184Z,64.47
2018-05-19T08:15:29.178Z,62.55
2018-05-19T08:16:29.190Z,61.14
2018-05-19T08:17:29.180Z,59.73
2018-05-19T08:18:29.230Z,58.67
2018-05-19T08:19:29.190Z,57.90
2018-05-19T08:20:29.194Z,58.87
2018-05-19T08:21:29.186Z,59.44
2018-05-19T08:22:29.184Z,58.51
2018-05-19T08:23:29.188Z,56.88
2018-05-19T08:24:29.188Z,57.81
2018-05-19T08:25:29.185Z,57.93
2018-05-19T08:26:29.200Z,56.49
2018-05-19T08:27:29.195Z,54.38
2018-05-19T08:28:29.197Z,54.67
2018-05-19T08:29:29.193Z,54.77
2018-05-19T08:30:29.264Z,55.05
2018-05-19T08:31:29.207Z,56.01
2018-05-19T08:32:29.205Z,54.96
2018-05-19T08:33:29.210Z,54.89
2018-05-19T08:34:29.216Z,55.18
2018-05-19T08:35:29.219Z,53.25
2018-05-19T08:36:29.219Z,53.09
2018-05-19T08:37:29.224Z,51.04
2018-05-19T08:38:29.229Z,52.10
2018-05-19T08:39:29.249Z,53.16
2018-05-19T08:40:29.237Z,51.72
2018-05-19T08:41:29.240Z,53.06
2018-05-19T08:42:29.247Z,53.76
2018-05-19T08:43:29.250Z,53.11
2018-05-19T08:44:29.259Z,51.57
2018-05-19T08:45:29.260Z,52.15
2018-05-19T08:46:29.266Z,50.93
2018-05-19T08:47:29.270Z,49.70
2018-05-19T08:48:29.298Z,49.79
2018-05-19T08:49:29.278Z,48.95
2018-05-19T08:50:29.318Z,48.86
2018-05-19T08:51:29.287Z,47.99
2018-05-19T08:52:29.301Z,48.11
2018-05-19T08:53:29.507Z,46.28
2018-05-19T08:54:29.306Z,47.34
2018-05-19T08:55:29.308Z,47.24
2018-05-19T08:56:29.318Z,47.14
2018-05-19T08:57:29.324Z,46.95
2018-05-19T08:58:29.327Z,45.21
2018-05-19T08:59:29.843Z,45.29
2018-05-19T09:00:29.366Z,46.33
2018-05-19T09:01:29.348Z,47.87
2018-05-19T09:02:29.351Z,48.93
2018-05-19T09:03:29.362Z,47.80
2018-05-19T09:04:29.371Z,46.40
2018-05-19T09:05:29.373Z,47.87
2018-05-19T09:06:29.386Z,47.58
2018-05-19T09:07:29.382Z,47.00
2018-05-19T09:08:29.390Z,46.38
2018-05-19T09:09:29.394Z,48.38
2018-05-19T09:10:29.402Z,49.15
2018-05-19T09:11:29.413Z,48.95
2018-05-19T09:12:29.414Z,48.64
2018-05-19T09:13:29.420Z,49.38
2018-05-19T09:14:29.438Z,50.82
2018-05-19T09:15:29.433Z,51.86
2018-05-19T09:16:29.438Z,52.53
2018-05-19T09:17:29.439Z,52.65
2018-05-19T09:18:29.441Z,52.17
2018-05-19T09:19:29.444Z,52.46
2018-05-19T09:20:29.450Z,52.84
2018-05-19T09:21:29.459Z,52.55
2018-05-19T09:22:29.462Z,53.23
2018-05-19T09:23:29.469Z,52.77
2018-05-19T09:24:29.473Z,53.06
2018-05-19T09:25:29.471Z,52.00
2018-05-19T09:26:29.476Z,52.00
2018-05-19T09:27:29.486Z,52.51
2018-05-19T09:28:29.485Z,52.15
2018-05-19T09:29:29.491Z,50.13
2018-05-19T09:30:29.493Z,49.58
2018-05-19T09:31:29.493Z,49.41
2018-05-19T09:32:29.504Z,47.12
2018-05-19T09:33:29.501Z,46.71
2018-05-19T09:34:29.507Z,46.62
2018-05-19T09:35:29.506Z,46.71
2018-05-19T09:36:29.521Z,47.10
2018-05-19T09:37:29.519Z,47.00
2018-05-19T09:38:29.521Z,46.59
2018-05-19T09:39:29.522Z,47.15
2018-05-19T09:40:29.524Z,48.25
2018-05-19T09:41:29.549Z,50.05
2018-05-19T09:42:29.613Z,51.04
2018-05-19T09:43:29.538Z,49.12
2018-05-19T09:44:29.539Z,49.79
2018-05-19T09:45:29.542Z,50.15
2018-05-19T09:46:29.541Z,50.13
2018-05-19T09:47:29.629Z,51.95
2018-05-19T09:48:29.550Z,52.05
2018-05-19T09:49:29.566Z,52.50
2018-05-19T09:50:29.556Z,54.04
2018-05-19T09:51:29.558Z,54.06
2018-05-19T09:52:29.563Z,53.11
2018-05-19T09:53:29.559Z,52.94
2018-05-19T09:54:29.563Z,52.00
2018-05-19T09:55:29.562Z,51.81
2018-05-19T09:56:29.567Z,49.79
2018-05-19T09:57:29.572Z,50.08
2018-05-19T09:58:29.572Z,50.05
2018-05-19T09:59:29.638Z,50.80
2018-05-19T10:00:29.570Z,51.67
2018-05-19T10:01:29.572Z,52.05
2018-05-19T10:02:29.575Z,52.14
2018-05-19T10:03:29.577Z,52.17
2018-05-19T10:04:29.574Z,50.82
2018-05-19T10:05:29.587Z,50.85
2018-05-19T10:06:29.577Z,49.89
2018-05-19T10:07:29.575Z,49.72
2018-05-19T10:08:29.577Z,49.05
2018-05-19T10:09:29.579Z,48.79
2018-05-19T10:10:29.578Z,48.11
2018-05-19T10:11:29.669Z,47.85
2018-05-19T10:12:29.595Z,47.39
2018-05-19T10:13:29.583Z,46.55
2018-05-19T10:14:29.583Z,45.68
2018-05-19T10:15:29.581Z,45.87
2018-05-19T10:16:29.593Z,45.21
2018-05-19T10:17:29.595Z,44.08
2018-05-19T10:18:29.590Z,43.72
2018-05-19T10:19:29.595Z,43.54
2018-05-19T10:20:29.598Z,42.18
2018-05-19T10:21:29.594Z,42.39
2018-05-19T10:22:29.602Z,41.61
2018-05-19T10:23:29.609Z,41.44
2018-05-19T10:24:29.613Z,40.19
2018-05-19T10:25:29.623Z,40.86
2018-05-19T10:26:29.620Z,40.30
2018-05-19T10:27:29.623Z,40.50
2018-05-19T10:28:29.628Z,40.03
2018-05-19T10:29:29.640Z,39.74
2018-05-19T10:30:29.641Z,40.15
2018-05-19T10:31:29.650Z,39.28
2018-05-19T10:32:29.653Z,38.81
2018-05-19T10:33:29.661Z,37.55
2018-05-19T10:34:29.662Z,39.11
2018-05-19T10:35:29.717Z,37.17
2018-05-19T10:36:29.679Z,37.57
2018-05-19T10:37:29.687Z,36.72
2018-05-19T10:38:29.694Z,35.38
2018-05-19T10:39:29.701Z,34.89
2018-05-19T10:40:29.715Z,35.57
2018-05-19T10:41:29.711Z,35.19
2018-05-19T10:42:29.728Z,35.48
2018-05-19T10:43:29.730Z,34.99
2018-05-19T10:44:29.738Z,34.41
2018-05-19T10:45:29.746Z,34.41
2018-05-19T10:46:29.754Z,34.13
2018-05-19T10:47:29.758Z,37.62
2018-05-19T10:48:29.766Z,41.17
2018-05-19T10:49:29.772Z,41.57
2018-05-19T10:50:29.783Z,41.09
2018-05-19T10:51:29.795Z,40.61
2018-05-19T10:52:29.798Z,40.63
2018-05-19T10:53:29.803Z,41.19
2018-05-19T10:54:29.803Z,41.09
2018-05-19T10:55:29.812Z,40.90
2018-05-19T10:56:29.821Z,40.34
2018-05-19T10:57:29.825Z,40.63
2018-05-19T10:58:29.829Z,40.75
2018-05-19T10:59:29.836Z,39.80
2018-05-19T11:00:29.842Z,38.91
2018-05-19T11:01:29.845Z,39.18
2018-05-19T11:02:29.849Z,40.80
2018-05-19T11:03:29.856Z,40.97
2018-05-19T11:04:29.861Z,41.94
2018-05-19T11:05:29.864Z,41.67
2018-05-19T11:06:29.872Z,41.19
2018-05-19T11:07:29.876Z,41.28
2018-05-19T11:08:29.877Z,40.05
2018-05-19T11:09:29.884Z,39.01
2018-05-19T11:10:29.889Z,38.71
2018-05-19T11:11:29.896Z,38.23
2018-05-19T11:12:29.903Z,39.11
2018-05-19T11:13:29.902Z,38.62
2018-05-19T11:14:29.911Z,39.97
2018-05-19T11:15:29.915Z,39.28
2018-05-19T11:16:29.915Z,41.23
2018-05-19T11:17:29.920Z,39.97
2018-05-19T11:18:29.937Z,37.79
2018-05-19T11:19:29.936Z,36.84
2018-05-19T11:20:29.941Z,35.21
2018-05-19T11:21:29.942Z,35.10
2018-05-19T11:22:29.949Z,35.84
2018-05-19T11:23:29.957Z,36.59
2018-05-19T11:24:29.964Z,38.21
2018-05-19T11:25:29.967Z,38.51
2018-05-19T11:26:29.980Z,38.68
2018-05-19T11:27:29.979Z,38.87
2018-05-19T11:28:29.978Z,39.66
2018-05-19T11:29:29.985Z,39.95
2018-05-19T11:30:29.998Z,39.47
2018-05-19T11:31:29.997Z,39.37
2018-05-19T11:32:29.999Z,39.09
2018-05-19T11:33:30.008Z,39.45
2018-05-19T11:34:30.007Z,40.39
2018-05-19T11:35:30.011Z,41.46
2018-05-19T11:36:30.016Z,41.07
2018-05-19T11:37:30.018Z,40.80
2018-05-19T11:38:30.023Z,41.09
2018-05-19T11:39:30.031Z,40.15
2018-05-19T11:40:30.049Z,40.24
2018-05-19T11:41:30.087Z,40.36
2018-05-19T11:42:30.042Z,39.70
2018-05-19T11:43:30.043Z,39.34
2018-05-19T11:44:30.054Z,38.97
2018-05-19T11:45:30.051Z,38.12
2018-05-19T11:46:30.061Z,37.36
2018-05-19T11:47:30.968Z,36.99
2018-05-19T11:48:30.068Z,35.35
2018-05-19T11:49:30.071Z,34.84
2018-05-19T11:50:30.083Z,36.08
2018-05-19T11:51:30.085Z,35.62
2018-05-19T11:52:30.098Z,35.91
2018-05-19T11:53:30.100Z,35.21
2018-05-19T11:54:30.112Z,36.38
2018-05-19T11:55:30.106Z,35.91
2018-05-19T11:56:30.135Z,35.41
2018-05-19T11:57:30.126Z,35.60
2018-05-19T11:58:30.176Z,35.02
2018-05-19T11:59:30.134Z,34.84
2018-05-19T12:00:30.137Z,34.94
2018-05-19T12:01:30.143Z,33.78
2018-05-19T12:02:30.153Z,33.10
2018-05-19T12:03:30.163Z,34.04
2018-05-19T12:04:30.168Z,35.86
2018-05-19T12:05:30.174Z,36.74
2018-05-19T12:06:30.188Z,36.65
2018-05-19T12:07:30.191Z,35.86
2018-05-19T12:08:30.209Z,36.90
2018-05-19T12:09:30.205Z,37.37
2018-05-19T12:10:30.233Z,37.75
2018-05-19T12:11:30.221Z,38.62
2018-05-19T12:12:30.233Z,38.23
2018-05-19T12:13:30.235Z,40.19
2018-05-19T12:14:30.243Z,37.52
2018-05-19T12:15:30.244Z,36.49
2018-05-19T12:16:30.253Z,35.41
2018-05-19T12:17:30.263Z,35.29
2018-05-19T12:18:30.269Z,36.94
2018-05-19T12:19:30.286Z,36.52
2018-05-19T12:20:30.283Z,38.76
2018-05-19T12:21:30.291Z,37.32
2018-05-19T12:22:30.300Z,35.97
2018-05-19T12:23:30.306Z,35.58
2018-05-19T12:24:30.318Z,35.68
2018-05-19T12:25:30.325Z,36.07
2018-05-19T12:26:30.338Z,36.74
2018-05-19T12:27:30.337Z,36.63
2018-05-19T12:28:30.353Z,38.78
2018-05-19T12:29:30.357Z,37.92
2018-05-19T12:30:30.370Z,35.25
2018-05-19T12:31:30.376Z,34.88
2018-05-19T12:32:30.384Z,33.02
2018-05-19T12:33:30.394Z,34.27
2018-05-19T12:34:30.399Z,35.26
2018-05-19T12:35:30.406Z,38.70
2018-05-19T12:36:30.419Z,39.28
2018-05-19T12:37:30.430Z,38.89
2018-05-19T12:38:30.438Z,38.89
2018-05-19T12:39:30.441Z,39.97
2018-05-19T12:40:30.452Z,39.61
2018-05-19T12:41:30.549Z,38.06
2018-05-19T12:42:30.466Z,37.48
2018-05-19T12:43:30.478Z,37.33
2018-05-19T12:44:30.497Z,39.14
2018-05-19T12:45:30.494Z,39.89
2018-05-19T12:46:30.497Z,40.64
2018-05-19T12:47:30.521Z,41.49
2018-05-19T12:48:30.518Z,42.26
2018-05-19T12:49:30.518Z,43.41
2018-05-19T12:50:30.527Z,42.49
2018-05-19T12:51:30.536Z,40.69
2018-05-19T12:52:30.539Z,38.91